Visit the IPS Meteostar Home Page IPSM Springfield Regional Airport FORECAST

Springfield, Missouri

63

64

70

60

60

68

62

52

40
40
42
32
40
48
48

5 miles away at Springfield Regional Airport 19:52 GMT

Weather:

Clear

Wind:

W 10 mph

Temperature:

63 ° F

Pressure:

30.02

Dew Point:

30 ° F

Relative Humidity:

28

Feels Like:

63 ° F

Visibility:

10 miles


Aviation Observations:

KSGF 231952Z 26009KT 10SM CLR 17/M01 A3000 RMK AO2 SLP159 T01721011 =

National Weather Service Forecast:
Greene
1042 AM CST THU NOV 23 2017

REST OF TODAY

Warmer, sunny. Highs in the upper 50s. West winds around 10 mph.

TONIGHT

Clear. Lows around 40. Light wind.

FRIDAY

Breezy, warmer. Mostly sunny. Highs around 70. southwest winds 10 to 20 mph with gusts to around 30 mph.

FRIDAY NIGHT

Partly cloudy. Lows in the lower 40s. Southwest winds 10 to 15 mph in the evening becoming light after midnight.

SATURDAY

Sunny. Highs around 60. Light wind in the morning becoming north around 10 mph in the afternoon.

SATURDAY NIGHT

Clear. Lows in the lower 30s.

SUNDAY

Mostly sunny. Highs around 60.

SUNDAY NIGHT AND MONDAY

Windy, clear. Lows around 40. Highs in the upper 60s.

MONDAY NIGHT

Breezy. Mostly clear. Lows in the upper 40s.

TUESDAY AND TUESDAY NIGHT

Partly cloudy. Highs in the lower 60s. Lows in the mid 30s.

WEDNESDAY

Mostly sunny with a 20 percent chance of rain. Highs in the lower 50s.


Visit the IPS Meteostar Home Page